Time;durP1;ratioP1;P1;durP2;ratioP2;P2;SDS_P1;SDS_P2;PMS_P1;PMS_P2;Temp;Humidity;BMP_temperature;BMP_pressure;BME280_temperature;BME280_humidity;BME280_pressure;Samples;Min_cycle;Max_cycle;Signal;HPM_P1;HPM_P2
2022/07/05 00:01:26;;;;;;;20.65;3.70;;;14.90;99.90;;;;;;4954034;29;20031;-71
2022/07/05 00:03:53;;;;;;;17.98;3.50;;;15.00;99.90;;;;;;4936515;29;20055;-70
2022/07/05 00:06:21;;;;;;;15.70;2.88;;;15.00;99.90;;;;;;4954006;29;20547;-70
2022/07/05 00:08:48;;;;;;;16.70;2.83;;;15.00;99.90;;;;;;4954138;29;20026;-71
2022/07/05 00:11:15;;;;;;;14.65;2.47;;;15.10;99.90;;;;;;4936739;29;20551;-71
2022/07/05 00:13:43;;;;;;;14.13;2.67;;;15.00;99.90;;;;;;4936712;29;20031;-72
2022/07/05 00:16:10;;;;;;;15.13;2.90;;;15.10;99.90;;;;;;4954180;29;20042;-71
2022/07/05 00:18:39;;;;;;;12.40;2.13;;;15.20;99.90;;;;;;4954115;29;20032;-71
2022/07/05 00:21:06;;;;;;;11.85;2.70;;;15.30;99.90;;;;;;4954083;29;20403;-71
2022/07/05 00:23:34;;;;;;;14.90;2.28;;;15.20;99.90;;;;;;4953917;29;20388;-71
2022/07/05 00:26:01;;;;;;;10.45;1.90;;;15.30;99.90;;;;;;4954060;28;20027;-70
2022/07/05 00:28:29;;;;;;;11.48;2.10;;;15.40;99.90;;;;;;4957205;29;20067;-70
2022/07/05 00:30:56;;;;;;;8.38;1.75;;;15.30;99.90;;;;;;4940190;29;20074;-71
2022/07/05 00:33:23;;;;;;;12.82;2.60;;;15.30;99.90;;;;;;4957329;29;20034;-71
2022/07/05 00:35:51;;;;;;;12.07;1.83;;;15.30;99.90;;;;;;4957373;29;20024;-72
2022/07/05 00:38:18;;;;;;;14.73;1.92;;;15.40;99.90;;;;;;4939928;29;20046;-71
2022/07/05 00:40:46;;;;;;;8.45;1.98;;;15.40;99.90;;;;;;4939803;29;20129;-71
2022/07/05 00:43:13;;;;;;;12.57;1.50;;;15.40;99.90;;;;;;4957159;29;20027;-72
2022/07/05 00:45:40;;;;;;;13.43;2.00;;;15.50;99.90;;;;;;4957129;29;20392;-71
2022/07/05 00:48:08;;;;;;;15.13;3.05;;;15.70;99.90;;;;;;4939766;29;20114;-71
2022/07/05 00:50:35;;;;;;;12.75;2.83;;;15.70;99.90;;;;;;4956961;29;20016;-71
2022/07/05 00:53:03;;;;;;;10.55;1.85;;;15.70;99.90;;;;;;4957251;29;20038;-72
2022/07/05 00:55:30;;;;;;;12.07;2.20;;;15.50;99.90;;;;;;4957006;29;20046;-72
2022/07/05 00:57:58;;;;;;;11.95;1.52;;;15.50;99.90;;;;;;4957084;29;20030;-71
2022/07/05 01:00:25;;;;;;;12.55;2.47;;;15.50;99.90;;;;;;4956902;29;20023;-71
2022/07/05 01:02:53;;;;;;;16.63;2.85;;;15.60;99.90;;;;;;4957058;29;20387;-71
2022/07/05 01:05:21;;;;;;;14.48;3.13;;;15.70;99.90;;;;;;4939205;29;20083;-71
2022/07/05 01:07:49;;;;;;;18.80;2.67;;;15.70;99.90;;;;;;4956934;29;20106;-71
2022/07/05 01:10:17;;;;;;;14.00;2.22;;;15.70;99.90;;;;;;4939514;29;20033;-71
2022/07/05 01:12:44;;;;;;;18.45;2.78;;;15.80;99.90;;;;;;4939371;29;20027;-71
2022/07/05 01:15:12;;;;;;;12.52;2.03;;;15.90;99.90;;;;;;4956590;29;20030;-71
2022/07/05 01:17:39;;;;;;;10.48;2.15;;;15.90;99.90;;;;;;4956686;29;20051;-71
2022/07/05 01:20:08;;;;;;;10.73;2.15;;;15.90;99.90;;;;;;4956563;29;20033;-71
2022/07/05 01:22:59;;;;;;;9.73;2.65;;;15.90;99.90;;;;;;4956571;29;20019;-72
2022/07/05 01:25:28;;;;;;;10.20;2.08;;;15.90;99.90;;;;;;4956444;29;20046;-71
2022/07/05 01:27:56;;;;;;;11.77;2.20;;;15.70;99.90;;;;;;4956522;29;20055;-72
2022/07/05 01:30:24;;;;;;;13.25;2.00;;;15.70;99.90;;;;;;4956731;29;20042;-72
2022/07/05 01:32:52;;;;;;;15.35;1.73;;;15.70;99.90;;;;;;4956336;29;20387;-71
2022/07/05 01:35:20;;;;;;;10.30;1.75;;;15.70;99.90;;;;;;4956307;29;20023;-72
2022/07/05 01:37:49;;;;;;;9.25;1.65;;;15.80;99.90;;;;;;4956296;28;20450;-72
2022/07/05 01:40:17;;;;;;;13.38;2.95;;;15.80;99.90;;;;;;4956183;29;20110;-71
2022/07/05 01:42:45;;;;;;;17.00;2.33;;;15.90;99.90;;;;;;4956358;29;20038;-71
2022/07/05 01:45:38;;;;;;;17.10;2.53;;;16.00;99.90;;;;;;4956477;29;20022;-71
2022/07/05 01:48:01;;;;;;;16.27;2.58;;;16.00;99.90;;;;;;4955935;29;20023;-71
2022/07/05 01:50:31;;;;;;;16.58;2.17;;;16.00;99.90;;;;;;4938796;29;20034;-71
2022/07/05 01:53:01;;;;;;;12.32;2.05;;;16.00;99.90;;;;;;4956032;29;20039;-71
2022/07/05 01:55:28;;;;;;;12.07;2.58;;;16.00;99.90;;;;;;4955879;29;20027;-71
2022/07/05 01:57:56;;;;;;;11.52;1.77;;;16.00;99.90;;;;;;4955878;29;20090;-71
2022/07/05 02:00:23;;;;;;;13.98;2.78;;;16.00;99.90;;;;;;4938648;29;20027;-71
2022/07/05 02:02:51;;;;;;;10.57;1.30;;;16.10;99.90;;;;;;4955707;29;20038;-71
2022/07/05 02:05:18;;;;;;;7.65;1.52;;;16.10;99.90;;;;;;4955588;29;20044;-71
2022/07/05 02:07:50;;;;;;;13.05;2.20;;;16.10;99.90;;;;;;4955719;29;20023;-71
2022/07/05 02:10:17;;;;;;;8.85;1.70;;;16.10;99.90;;;;;;4955729;29;20027;-71
2022/07/05 02:12:44;;;;;;;10.32;1.67;;;16.10;99.90;;;;;;4955651;29;20059;-70
2022/07/05 02:15:12;;;;;;;13.88;2.03;;;16.10;99.90;;;;;;4955671;29;20507;-71
2022/07/05 02:17:39;;;;;;;7.68;2.17;;;15.80;99.90;;;;;;4938177;29;20019;-71
2022/07/05 02:20:07;;;;;;;12.25;2.53;;;15.80;99.90;;;;;;4955436;29;20030;-72
2022/07/05 02:22:34;;;;;;;9.70;1.88;;;15.70;99.90;;;;;;4938210;29;20023;-71
2022/07/05 02:25:01;;;;;;;9.18;1.63;;;15.70;99.90;;;;;;4955464;29;20023;-71
2022/07/05 02:27:29;;;;;;;12.55;1.98;;;15.80;99.90;;;;;;4955423;29;20106;-71
2022/07/05 02:29:56;;;;;;;10.95;2.08;;;15.80;99.90;;;;;;4955437;29;20039;-72
2022/07/05 02:32:23;;;;;;;12.90;1.90;;;15.80;99.90;;;;;;4937946;29;20027;-71
2022/07/05 02:34:51;;;;;;;9.30;1.60;;;15.70;99.90;;;;;;4955394;29;20416;-72
2022/07/05 02:37:18;;;;;;;12.52;2.20;;;15.50;99.90;;;;;;4955155;29;20078;-71
2022/07/05 02:39:45;;;;;;;11.65;1.65;;;15.30;99.90;;;;;;4938033;29;20432;-71
2022/07/05 02:42:13;;;;;;;8.93;1.33;;;15.30;99.90;;;;;;4955279;29;20034;-71
2022/07/05 02:44:40;;;;;;;6.60;1.42;;;15.30;99.90;;;;;;4937698;29;20082;-71
2022/07/05 02:47:07;;;;;;;8.18;1.60;;;15.30;99.90;;;;;;4955150;29;20357;-71
2022/07/05 02:49:35;;;;;;;10.70;1.52;;;15.20;99.90;;;;;;4954606;28;20031;-71
2022/07/05 02:52:02;;;;;;;9.73;1.85;;;15.30;99.90;;;;;;4954976;29;20015;-72
2022/07/05 02:54:29;;;;;;;9.90;1.63;;;15.30;99.90;;;;;;4937728;29;20031;-72
2022/07/05 02:56:57;;;;;;;9.93;1.42;;;15.30;99.90;;;;;;4955047;29;20414;-72
2022/07/05 02:59:24;;;;;;;12.82;2.20;;;15.30;99.90;;;;;;4937575;29;20392;-72
2022/07/05 03:01:51;;;;;;;14.15;1.50;;;15.20;99.90;;;;;;4955028;29;20106;-72
2022/07/05 03:04:19;;;;;;;10.25;1.90;;;15.10;99.90;;;;;;4937452;29;20449;-72
2022/07/05 03:06:46;;;;;;;15.18;2.25;;;15.10;99.90;;;;;;4954762;29;20511;-72
2022/07/05 03:09:13;;;;;;;12.95;1.90;;;15.00;99.90;;;;;;4954887;29;20385;-72
2022/07/05 03:11:41;;;;;;;13.63;2.72;;;15.00;99.90;;;;;;4955407;29;20027;-71
2022/07/05 03:14:08;;;;;;;10.15;2.10;;;15.00;99.90;;;;;;4954745;29;20051;-73
2022/07/05 03:16:35;;;;;;;9.75;1.52;;;15.10;99.90;;;;;;4955091;29;20383;-73
2022/07/05 03:19:03;;;;;;;12.98;2.50;;;15.10;99.90;;;;;;4937379;29;20038;-73
2022/07/05 03:21:30;;;;;;;9.20;1.58;;;15.10;99.90;;;;;;4954768;29;20024;-72
2022/07/05 03:23:57;;;;;;;13.15;2.60;;;15.10;99.90;;;;;;4937364;29;20039;-72
2022/07/05 03:26:25;;;;;;;11.88;1.85;;;15.00;99.90;;;;;;4954737;29;20015;-72
2022/07/05 03:28:52;;;;;;;11.13;1.95;;;14.90;99.90;;;;;;4954578;29;20459;-72
2022/07/05 03:31:19;;;;;;;11.48;1.80;;;14.90;99.90;;;;;;4937462;29;20027;-72
2022/07/05 03:33:47;;;;;;;11.60;1.45;;;14.80;99.90;;;;;;4954605;29;20024;-72
2022/07/05 03:36:14;;;;;;;11.27;2.22;;;14.90;99.90;;;;;;4937539;29;20093;-72
2022/07/05 03:38:41;;;;;;;11.73;2.13;;;14.90;99.90;;;;;;4937518;29;20042;-72
2022/07/05 03:41:09;;;;;;;11.05;1.63;;;15.00;99.90;;;;;;4954788;29;20028;-72
2022/07/05 03:43:36;;;;;;;13.88;2.10;;;15.10;99.90;;;;;;4937136;29;20396;-72
2022/07/05 03:46:03;;;;;;;9.93;1.52;;;15.10;99.90;;;;;;4954561;29;20027;-72
2022/07/05 03:48:31;;;;;;;11.18;1.92;;;15.20;99.90;;;;;;4954403;29;20023;-72
2022/07/05 03:50:58;;;;;;;10.27;2.00;;;15.20;99.90;;;;;;4954485;29;20020;-72
2022/07/05 03:53:25;;;;;;;12.02;1.70;;;15.20;99.90;;;;;;4954472;29;20539;-72
2022/07/05 03:55:53;;;;;;;15.70;2.20;;;15.20;99.90;;;;;;4937022;29;20082;-72
2022/07/05 03:58:20;;;;;;;11.88;2.50;;;15.10;99.90;;;;;;4954331;29;20023;-72
2022/07/05 04:00:47;;;;;;;11.65;1.40;;;15.10;99.90;;;;;;4954311;28;20019;-72
2022/07/05 04:03:15;;;;;;;11.15;1.85;;;15.00;99.90;;;;;;4939986;29;20028;-72
2022/07/05 04:05:42;;;;;;;11.07;1.40;;;14.80;99.90;;;;;;4957691;29;20055;-72
2022/07/05 04:08:09;;;;;;;9.90;1.92;;;14.90;99.90;;;;;;4958463;29;20151;-72
2022/07/05 04:10:36;;;;;;;14.85;1.92;;;14.80;99.90;;;;;;4957888;29;20027;-72
2022/07/05 04:13:04;;;;;;;10.25;1.60;;;14.90;99.90;;;;;;4957912;29;20023;-72
2022/07/05 04:15:31;;;;;;;13.68;2.47;;;15.00;99.90;;;;;;4940304;29;20032;-72
2022/07/05 04:17:58;;;;;;;11.75;2.05;;;15.00;99.90;;;;;;4940437;29;20166;-72
2022/07/05 04:20:26;;;;;;;12.70;2.33;;;15.10;99.90;;;;;;4957749;29;20043;-71
2022/07/05 04:22:55;;;;;;;8.90;1.80;;;15.10;99.90;;;;;;4957610;29;20098;-73
2022/07/05 04:25:23;;;;;;;9.57;1.73;;;15.10;99.90;;;;;;4940318;29;20384;-72
2022/07/05 04:27:52;;;;;;;11.60;2.30;;;15.20;99.90;;;;;;4957559;29;20435;-72
2022/07/05 04:30:24;;;;;;;10.82;1.90;;;15.20;99.90;;;;;;4957237;29;20023;-72
2022/07/05 04:32:52;;;;;;;7.60;1.65;;;15.30;99.90;;;;;;4940059;29;20432;-72
2022/07/05 04:35:19;;;;;;;8.73;1.90;;;15.30;99.90;;;;;;4957709;29;20098;-72
2022/07/05 04:37:46;;;;;;;11.02;2.42;;;15.30;99.90;;;;;;4957415;29;20027;-73
2022/07/05 04:40:15;;;;;;;9.52;1.92;;;15.40;99.90;;;;;;4957277;29;20027;-72
2022/07/05 04:42:43;;;;;;;9.63;2.10;;;15.50;99.90;;;;;;4957389;29;20024;-72
2022/07/05 04:45:11;;;;;;;12.50;1.73;;;15.50;99.90;;;;;;4957228;29;20527;-72
2022/07/05 04:47:38;;;;;;;8.80;1.52;;;15.60;99.90;;;;;;4957267;29;20019;-72
2022/07/05 04:50:06;;;;;;;9.88;1.80;;;15.60;99.90;;;;;;4957208;29;20408;-72
2022/07/05 04:52:34;;;;;;;9.68;1.23;;;15.70;99.90;;;;;;4957242;29;20051;-72
2022/07/05 04:55:02;;;;;;;13.45;1.85;;;15.60;99.90;;;;;;4957167;29;20138;-72
2022/07/05 04:57:40;;;;;;;11.90;2.63;;;15.50;99.90;;;;;;4957107;29;20027;-72
2022/07/05 05:00:09;;;;;;;12.82;2.10;;;15.50;99.90;;;;;;4957103;29;20128;-72
2022/07/05 05:02:37;;;;;;;14.45;2.97;;;15.50;99.90;;;;;;4957037;29;20050;-72
2022/07/05 05:05:05;;;;;;;16.85;2.70;;;15.50;99.90;;;;;;4956857;29;20069;-72
2022/07/05 05:07:34;;;;;;;8.48;1.58;;;15.50;99.90;;;;;;4939612;29;20078;-72
2022/07/05 05:10:02;;;;;;;13.65;2.00;;;15.50;99.90;;;;;;4957227;29;20019;-72
2022/07/05 05:12:29;;;;;;;14.05;2.08;;;15.50;99.90;;;;;;4956342;28;20023;-72
2022/07/05 05:14:56;;;;;;;13.85;1.75;;;15.50;99.90;;;;;;4956814;29;20027;-72
2022/07/05 05:17:24;;;;;;;12.63;2.15;;;15.60;99.90;;;;;;4939378;29;20027;-72
2022/07/05 05:19:51;;;;;;;8.93;1.92;;;15.60;99.90;;;;;;4939359;29;20031;-72
2022/07/05 05:22:18;;;;;;;8.70;1.83;;;15.60;99.90;;;;;;4956602;29;20031;-72
2022/07/05 05:24:45;;;;;;;11.27;2.35;;;15.60;99.90;;;;;;4956574;29;20206;-71
2022/07/05 05:27:13;;;;;;;15.18;2.28;;;15.60;99.90;;;;;;4939253;29;20542;-71
2022/07/05 05:29:40;;;;;;;13.40;1.80;;;15.50;99.90;;;;;;4939179;29;20023;-71
2022/07/05 05:32:08;;;;;;;10.05;1.80;;;15.60;99.90;;;;;;4956367;29;20024;-70
2022/07/05 05:34:38;;;;;;;12.07;1.40;;;15.70;99.90;;;;;;4939109;29;20437;-71
2022/07/05 05:37:05;;;;;;;11.40;1.90;;;15.70;99.90;;;;;;4956449;29;20395;-71
2022/07/05 05:39:33;;;;;;;9.25;1.67;;;15.70;99.90;;;;;;4956311;29;20027;-71
2022/07/05 05:42:00;;;;;;;10.27;1.73;;;15.70;99.90;;;;;;4938974;29;20027;-71
2022/07/05 05:44:27;;;;;;;12.63;2.05;;;15.80;99.90;;;;;;4938852;29;20059;-71
2022/07/05 05:46:55;;;;;;;10.35;2.08;;;15.80;99.90;;;;;;4956206;29;20015;-71
2022/07/05 05:49:22;;;;;;;13.27;1.98;;;15.80;99.90;;;;;;4956158;29;20023;-71
2022/07/05 05:51:49;;;;;;;9.70;1.30;;;15.70;99.90;;;;;;4956218;29;20033;-71
2022/07/05 05:54:16;;;;;;;8.82;1.73;;;15.80;99.90;;;;;;4956213;29;20023;-70
2022/07/05 05:56:44;;;;;;;16.08;2.13;;;15.80;99.90;;;;;;4955939;29;20027;-70
2022/07/05 05:59:11;;;;;;;13.30;2.30;;;15.70;99.90;;;;;;4955865;29;20369;-70
2022/07/05 06:01:38;;;;;;;12.52;2.15;;;15.70;99.90;;;;;;4955699;29;20494;-70
2022/07/05 06:04:06;;;;;;;12.32;1.73;;;15.70;99.90;;;;;;4955685;29;20038;-70
2022/07/05 06:06:33;;;;;;;12.07;2.30;;;15.70;99.90;;;;;;4938279;29;20408;-69
2022/07/05 06:09:00;;;;;;;13.45;2.20;;;15.70;99.90;;;;;;4955862;29;20048;-69
2022/07/05 06:11:28;;;;;;;7.72;1.40;;;15.70;99.90;;;;;;4955683;29;20015;-70
2022/07/05 06:13:55;;;;;;;10.20;1.45;;;15.70;99.90;;;;;;4955603;29;20392;-70
2022/07/05 06:16:22;;;;;;;9.90;2.00;;;15.70;99.90;;;;;;4955577;29;20404;-70
2022/07/05 06:18:52;;;;;;;9.52;2.00;;;15.60;99.90;;;;;;4955550;29;20023;-70
2022/07/05 06:21:19;;;;;;;11.13;1.73;;;15.60;99.90;;;;;;4956112;29;20428;-70
2022/07/05 06:23:47;;;;;;;8.63;1.55;;;15.70;99.90;;;;;;4955152;28;20277;-70
2022/07/05 06:26:14;;;;;;;8.18;1.50;;;15.60;99.90;;;;;;4955043;29;20023;-71
2022/07/05 06:28:41;;;;;;;10.98;1.58;;;15.60;99.90;;;;;;4938021;29;20032;-71
2022/07/05 06:31:09;;;;;;;10.32;1.90;;;15.60;99.90;;;;;;4955372;29;20020;-70
2022/07/05 06:33:36;;;;;;;13.98;2.30;;;15.60;99.90;;;;;;4955189;29;20388;-71
2022/07/05 06:36:04;;;;;;;8.98;1.48;;;15.60;99.90;;;;;;4955207;29;20135;-72
2022/07/05 06:38:31;;;;;;;7.45;1.30;;;15.50;99.90;;;;;;4955156;29;20031;-72
2022/07/05 06:40:59;;;;;;;7.13;1.52;;;15.30;99.90;;;;;;4955096;29;20031;-73
2022/07/05 06:43:27;;;;;;;8.52;2.00;;;15.20;99.90;;;;;;4955239;29;20118;-70
2022/07/05 06:45:55;;;;;;;9.95;1.55;;;15.10;99.90;;;;;;4955386;29;20488;-71
2022/07/05 06:48:23;;;;;;;7.78;1.40;;;15.10;99.90;;;;;;4937722;29;20041;-70
2022/07/05 06:50:50;;;;;;;10.30;1.90;;;15.10;99.90;;;;;;4955040;29;20027;-70
2022/07/05 06:53:17;;;;;;;18.50;2.20;;;15.10;99.90;;;;;;4954842;29;20023;-70
2022/07/05 06:55:45;;;;;;;9.98;1.67;;;14.90;99.90;;;;;;4954875;29;20372;-70
2022/07/05 06:58:13;;;;;;;12.02;2.13;;;14.70;99.90;;;;;;4955263;29;20030;-70
2022/07/05 07:00:44;;;;;;;15.35;2.13;;;14.50;99.90;;;;;;4937320;29;20027;-69
2022/07/05 07:03:11;;;;;;;11.50;2.00;;;14.40;99.90;;;;;;4937326;29;20044;-70
2022/07/05 07:05:39;;;;;;;9.13;1.50;;;14.30;99.90;;;;;;4937210;29;20070;-69
2022/07/05 07:10:51;;;;;;;12.40;2.13;;;14.30;99.90;;;;;;4955131;29;20030;-70
2022/07/05 07:13:19;;;;;;;12.30;1.83;;;14.30;99.90;;;;;;4937431;29;20027;-71
2022/07/05 07:15:47;;;;;;;17.10;2.17;;;14.20;99.90;;;;;;4954862;29;20031;-70
2022/07/05 07:18:15;;;;;;;16.27;2.53;;;14.20;99.90;;;;;;4954692;29;20395;-71
2022/07/05 07:20:43;;;;;;;9.05;2.05;;;14.20;99.90;;;;;;4954873;29;20023;-71
2022/07/05 07:23:10;;;;;;;11.23;2.13;;;14.20;99.90;;;;;;4937294;29;20548;-70
2022/07/05 07:25:37;;;;;;;9.80;1.40;;;14.10;99.90;;;;;;4954538;29;20479;-70
2022/07/05 07:28:05;;;;;;;12.38;2.10;;;14.10;99.90;;;;;;4954704;29;20468;-71
2022/07/05 07:30:33;;;;;;;14.20;2.90;;;14.10;99.90;;;;;;4937221;29;20030;-70
2022/07/05 07:33:00;;;;;;;16.33;2.53;;;14.20;99.90;;;;;;4954625;29;20127;-70
2022/07/05 07:35:27;;;;;;;13.27;2.85;;;14.30;99.90;;;;;;4937693;28;20029;-71
2022/07/05 07:37:55;;;;;;;10.63;1.67;;;14.30;99.90;;;;;;4958530;29;20026;-71
2022/07/05 07:40:22;;;;;;;16.48;2.75;;;14.30;99.90;;;;;;4958456;29;20030;-70
2022/07/05 07:42:49;;;;;;;9.48;2.22;;;14.50;99.90;;;;;;4941150;29;20027;-71
2022/07/05 07:45:17;;;;;;;14.18;2.03;;;14.60;99.90;;;;;;4958857;29;20142;-70
2022/07/05 07:47:44;;;;;;;12.18;2.15;;;14.70;99.90;;;;;;4958281;29;20024;-70
2022/07/05 07:50:12;;;;;;;13.70;2.35;;;14.70;99.90;;;;;;4958310;29;20026;-71
2022/07/05 07:52:40;;;;;;;12.18;2.05;;;14.70;99.90;;;;;;4958289;29;20468;-71
2022/07/05 07:55:08;;;;;;;8.45;1.85;;;14.70;99.90;;;;;;4958213;29;20027;-70
2022/07/05 07:57:35;;;;;;;10.82;1.80;;;14.80;99.90;;;;;;4958424;29;20493;-71
2022/07/05 08:00:04;;;;;;;10.38;1.80;;;14.80;99.90;;;;;;4958190;29;20494;-70
2022/07/05 08:02:31;;;;;;;8.85;1.88;;;14.90;99.90;;;;;;4940825;29;20031;-70
2022/07/05 08:04:58;;;;;;;13.73;1.95;;;14.90;99.90;;;;;;4957652;29;20044;-72
2022/07/05 08:07:26;;;;;;;12.18;2.15;;;15.00;99.90;;;;;;4958198;29;20027;-70
2022/07/05 08:09:53;;;;;;;12.07;1.92;;;15.10;99.90;;;;;;4940602;29;20078;-70
2022/07/05 08:12:21;;;;;;;12.13;2.35;;;15.10;99.90;;;;;;4940671;29;20074;-70
2022/07/05 08:14:48;;;;;;;16.38;2.80;;;15.10;99.90;;;;;;4957961;29;20031;-70
2022/07/05 08:17:16;;;;;;;14.88;2.80;;;15.10;99.90;;;;;;4940512;29;20121;-71
2022/07/05 08:22:29;;;;;;;11.73;2.78;;;15.10;99.90;;;;;;4958072;29;20046;-70
2022/07/05 08:24:57;;;;;;;11.38;2.22;;;15.10;99.90;;;;;;4957631;29;20023;-70
2022/07/05 08:27:25;;;;;;;10.50;1.60;;;15.10;99.90;;;;;;4940348;29;20028;-70
2022/07/05 08:29:52;;;;;;;10.57;2.42;;;15.20;99.90;;;;;;4957471;29;20106;-69
2022/07/05 08:32:20;;;;;;;10.75;2.22;;;15.20;99.90;;;;;;4957661;29;20094;-71
2022/07/05 08:34:47;;;;;;;12.75;2.03;;;15.20;99.90;;;;;;4940190;29;20035;-71
2022/07/05 08:37:15;;;;;;;14.18;2.53;;;15.20;99.90;;;;;;4957394;29;20046;-71
2022/07/05 08:39:42;;;;;;;12.00;1.88;;;15.30;99.90;;;;;;4940131;29;20031;-69
2022/07/05 08:42:11;;;;;;;10.48;2.42;;;15.20;99.90;;;;;;4957688;29;20034;-70
2022/07/05 08:44:42;;;;;;;17.80;2.88;;;15.20;99.90;;;;;;4957184;29;20046;-70
2022/07/05 08:47:15;;;;;;;14.30;2.13;;;15.20;99.90;;;;;;4939336;29;20062;-70
2022/07/05 08:49:43;;;;;;;10.38;1.70;;;15.10;99.90;;;;;;4957189;29;20373;-70
2022/07/05 08:52:15;;;;;;;11.32;1.77;;;15.10;99.90;;;;;;4957148;29;20029;-70
2022/07/05 08:54:42;;;;;;;13.30;1.98;;;15.10;99.90;;;;;;4939871;29;20028;-71
2022/07/05 08:57:10;;;;;;;13.45;1.95;;;15.10;99.90;;;;;;4957300;29;20035;-70
2022/07/05 08:59:37;;;;;;;13.20;2.55;;;15.20;99.90;;;;;;4957040;29;20483;-71
2022/07/05 09:02:06;;;;;;;11.43;2.35;;;15.20;99.90;;;;;;4956894;29;20059;-70
2022/07/05 09:04:38;;;;;;;12.07;1.73;;;15.20;99.90;;;;;;4939740;29;20030;-71
2022/07/05 09:07:07;;;;;;;11.70;2.15;;;15.20;99.90;;;;;;4939652;29;20138;-70
2022/07/05 09:09:39;;;;;;;9.48;1.90;;;15.20;99.90;;;;;;4956849;29;20167;-70
2022/07/05 09:12:07;;;;;;;9.98;1.90;;;15.20;99.90;;;;;;4939533;29;20034;-70
2022/07/05 09:14:34;;;;;;;16.02;2.63;;;15.10;99.90;;;;;;4939606;29;20023;-70
2022/07/05 09:17:01;;;;;;;15.43;2.40;;;15.10;99.90;;;;;;4956650;29;20026;-71
2022/07/05 09:19:31;;;;;;;16.15;2.35;;;15.20;99.90;;;;;;4956597;29;20035;-70
2022/07/05 09:22:05;;;;;;;13.98;2.40;;;15.00;99.90;;;;;;4939191;29;20023;-70
2022/07/05 09:24:42;;;;;;;15.25;2.13;;;14.90;99.90;;;;;;4956856;29;20506;-70
2022/07/05 09:27:10;;;;;;;12.57;2.42;;;14.80;99.90;;;;;;4956722;29;20031;-70
2022/07/05 09:29:37;;;;;;;12.82;2.58;;;14.80;99.90;;;;;;4956440;29;20027;-69
2022/07/05 09:32:05;;;;;;;10.70;2.20;;;14.80;99.90;;;;;;4939145;29;20439;-69
2022/07/05 09:34:34;;;;;;;13.95;2.72;;;14.80;99.90;;;;;;4956444;29;20030;-69
2022/07/05 09:37:03;;;;;;;15.50;2.33;;;14.90;99.90;;;;;;4956195;29;20492;-69
2022/07/05 09:39:30;;;;;;;11.30;2.08;;;14.80;99.90;;;;;;4956512;29;20028;-70
2022/07/05 09:42:25;;;;;;;15.80;2.63;;;14.80;99.90;;;;;;4938919;29;20491;-69
2022/07/05 09:44:59;;;;;;;12.40;2.40;;;14.90;99.90;;;;;;4956373;29;20063;-70
2022/07/05 09:47:29;;;;;;;13.90;2.58;;;15.00;99.90;;;;;;4938988;29;20058;-70
2022/07/05 09:50:09;;;;;;;12.05;2.90;;;15.00;99.90;;;;;;4956657;29;20031;-69
2022/07/05 09:52:39;;;;;;;16.30;2.75;;;15.10;99.90;;;;;;4938339;29;20444;-70
2022/07/05 09:55:18;;;;;;;7.13;1.95;;;15.10;99.90;;;;;;4956152;29;20074;-68
2022/07/05 09:57:54;;;;;;;12.70;2.30;;;15.20;99.90;;;;;;4938713;29;20046;-68
2022/07/05 10:00:23;;;;;;;12.38;2.83;;;15.20;99.90;;;;;;4955989;28;20361;-67
2022/07/05 10:03:05;;;;;;;17.20;2.55;;;15.20;99.90;;;;;;4938591;29;20034;-68
2022/07/05 10:05:33;;;;;;;16.90;2.75;;;15.20;99.90;;;;;;4938245;29;20070;-68
2022/07/05 10:08:02;;;;;;;13.40;2.00;;;15.30;99.90;;;;;;4955841;29;20023;-68
2022/07/05 10:10:31;;;;;;;13.45;2.40;;;15.20;99.90;;;;;;4955765;29;20027;-69
2022/07/05 10:13:06;;;;;;;13.75;2.13;;;15.20;99.90;;;;;;4955645;29;20023;-69
2022/07/05 10:15:37;;;;;;;11.88;2.22;;;15.30;99.90;;;;;;4955755;29;20535;-70
2022/07/05 10:18:10;;;;;;;15.27;2.47;;;15.20;99.90;;;;;;4955644;29;20019;-69
2022/07/05 10:20:45;;;;;;;14.65;2.67;;;15.20;99.90;;;;;;4955816;29;20034;-69
2022/07/05 10:23:14;;;;;;;11.50;2.15;;;15.30;99.90;;;;;;4955542;29;20026;-69
2022/07/05 10:25:47;;;;;;;13.65;2.17;;;15.30;99.90;;;;;;4955449;29;20027;-69
2022/07/05 10:28:15;;;;;;;11.80;2.08;;;15.30;99.90;;;;;;4955498;29;20137;-69
2022/07/05 10:30:46;;;;;;;12.25;1.80;;;15.40;99.90;;;;;;4955373;29;20102;-70
2022/07/05 10:33:16;;;;;;;10.35;1.63;;;15.40;99.90;;;;;;4955460;29;20034;-69
2022/07/05 10:35:44;;;;;;;22.38;3.47;;;15.40;99.90;;;;;;4938025;29;20027;-69
2022/07/05 10:38:12;;;;;;;11.85;1.75;;;15.40;99.90;;;;;;4955230;29;20046;-70
2022/07/05 10:40:42;;;;;;;13.57;2.85;;;15.40;99.90;;;;;;4955289;29;20022;-71
2022/07/05 10:43:10;;;;;;;8.27;1.60;;;15.40;99.90;;;;;;4955163;29;20106;-70
2022/07/05 10:45:43;;;;;;;13.05;2.40;;;15.40;99.90;;;;;;4937827;29;20093;-69
2022/07/05 10:48:29;;;;;;;14.18;1.80;;;15.40;99.90;;;;;;4955493;29;20026;-68
2022/07/05 10:50:58;;;;;;;12.82;2.63;;;15.40;99.90;;;;;;4937892;29;20031;-70
2022/07/05 10:53:48;;;;;;;12.75;2.08;;;15.40;99.90;;;;;;4955040;29;20034;-69
2022/07/05 10:56:16;;;;;;;14.68;2.28;;;15.40;99.90;;;;;;4954873;29;20031;-68
2022/07/05 10:58:45;;;;;;;12.88;2.15;;;15.40;99.90;;;;;;4954933;29;20126;-69
2022/07/05 11:01:21;;;;;;;17.88;2.63;;;15.40;99.90;;;;;;4954929;29;20023;-69
2022/07/05 11:03:52;;;;;;;17.95;2.40;;;15.30;99.90;;;;;;4955262;29;20102;-69
2022/07/05 11:06:23;;;;;;;14.05;2.70;;;15.20;99.90;;;;;;4954718;29;20504;-69
2022/07/05 11:09:02;;;;;;;14.02;2.17;;;15.20;99.90;;;;;;4954835;29;20484;-69
2022/07/05 11:11:31;;;;;;;11.75;2.15;;;15.10;99.90;;;;;;4954474;29;20062;-69
2022/07/05 11:14:20;;;;;;;16.15;2.50;;;15.10;99.90;;;;;;4954915;29;20023;-69
2022/07/05 11:16:49;;;;;;;14.65;3.10;;;15.10;99.90;;;;;;4936422;29;20035;-69
2022/07/05 11:19:20;;;;;;;18.10;2.35;;;15.10;99.90;;;;;;4937646;29;20035;-69
2022/07/05 11:22:06;;;;;;;12.48;1.88;;;15.10;99.90;;;;;;4937410;29;20031;-69
2022/07/05 11:24:42;;;;;;;14.20;2.58;;;15.10;99.90;;;;;;4954694;29;20033;-70
2022/07/05 11:27:13;;;;;;;9.68;1.98;;;15.20;99.90;;;;;;4954682;29;20020;-69
2022/07/05 11:29:53;;;;;;;13.68;2.97;;;15.20;99.90;;;;;;4937418;29;20019;-69
2022/07/05 11:32:24;;;;;;;13.40;2.67;;;15.30;99.90;;;;;;4954679;29;20026;-68
2022/07/05 11:34:53;;;;;;;13.30;2.28;;;15.30;99.90;;;;;;4955080;29;20031;-70
2022/07/05 11:37:32;;;;;;;11.10;1.88;;;15.30;99.90;;;;;;4954626;29;20025;-70
2022/07/05 11:40:10;;;;;;;15.50;2.22;;;15.20;99.90;;;;;;4954512;29;20051;-72
2022/07/05 11:42:48;;;;;;;13.30;2.42;;;15.20;99.90;;;;;;4937182;29;20078;-70
2022/07/05 11:45:17;;;;;;;14.98;2.40;;;15.20;99.90;;;;;;4954498;29;20508;-69
2022/07/05 11:47:44;;;;;;;15.77;2.30;;;15.20;99.90;;;;;;4954818;29;20475;-71
2022/07/05 11:50:13;;;;;;;14.48;2.70;;;15.30;99.90;;;;;;4954524;29;20024;-71
2022/07/05 11:52:41;;;;;;;13.82;2.60;;;15.40;99.90;;;;;;4937263;29;20034;-69
2022/07/05 11:55:10;;;;;;;10.27;2.15;;;15.40;99.90;;;;;;4937109;29;20082;-70
2022/07/05 11:57:49;;;;;;;13.37;2.23;;;15.30;99.90;;;;;;4954463;29;20027;-70
2022/07/05 12:00:40;;;;;;;14.23;2.10;;;15.30;99.90;;;;;;4954453;29;20027;-70
2022/07/05 12:03:16;;;;;;;14.50;2.80;;;15.30;99.90;;;;;;4954431;29;20475;-70
2022/07/05 12:05:44;;;;;;;10.13;1.80;;;15.20;99.90;;;;;;4954392;29;20515;-72
2022/07/05 12:08:11;;;;;;;12.13;1.90;;;15.20;99.90;;;;;;4937030;29;20028;-72
2022/07/05 12:13:30;;;;;;;15.57;2.55;;;15.10;99.90;;;;;;4954459;29;20078;-71
2022/07/05 12:16:01;;;;;;;8.93;1.65;;;15.10;99.90;;;;;;4954297;29;20547;-71
2022/07/05 12:18:28;;;;;;;;;;;15.10;99.90;;;;;;4954908;29;20031;-70
2022/07/05 12:20:56;;;;;;;9.38;1.58;;;15.00;99.90;;;;;;4954291;29;19910;-70
2022/07/05 12:23:28;;;;;;;9.60;1.80;;;15.00;99.90;;;;;;4938462;29;20027;-70
2022/07/05 12:25:59;;;;;;;11.70;2.17;;;14.90;99.90;;;;;;4957784;29;20384;-70
2022/07/05 12:28:27;;;;;;;11.00;1.98;;;14.80;99.90;;;;;;4957669;29;20020;-71
2022/07/05 12:30:55;;;;;;;9.35;1.77;;;14.80;99.90;;;;;;4940209;29;20020;-71
2022/07/05 12:33:22;;;;;;;15.63;1.75;;;14.70;99.90;;;;;;4940293;29;20419;-71
2022/07/05 12:35:50;;;;;;;13.98;2.00;;;14.60;99.90;;;;;;4957396;29;20031;-69
2022/07/05 12:38:20;;;;;;;8.43;1.67;;;14.50;99.90;;;;;;4940043;29;20068;-69
2022/07/05 12:40:49;;;;;;;11.32;1.60;;;14.40;99.90;;;;;;4957409;29;20182;-69
2022/07/05 12:43:18;;;;;;;13.50;2.10;;;14.40;99.90;;;;;;4957265;29;20482;-70
2022/07/05 12:46:04;;;;;;;16.73;2.03;;;14.40;99.90;;;;;;4940025;29;20121;-70
2022/07/05 12:48:41;;;;;;;14.15;2.75;;;14.30;99.90;;;;;;4957336;29;20028;-69
2022/07/05 12:51:09;;;;;;;8.65;1.70;;;14.30;99.90;;;;;;4939947;29;20027;-70
2022/07/05 12:59:17;;;;;;;10.00;1.35;;;14.20;99.90;;;;;;4957392;29;20574;-70
2022/07/05 13:01:45;;;;;;;6.43;1.33;;;14.10;99.90;;;;;;4957552;29;20483;-72